Leaf, Mississippi
Current Conditions -  °F | °C
As of 2:53 PM on Tuesday 21 Oct 2014 (Local Time) from KHBG Reporting Station
Clear Clear  
Wind Chill: 80°   Ceiling: Unl
Heat Index: 80°   Visibility: 10mi
Dew Point: 52°   Wind: 8mph
Humidity: 38%   Direction: 350°N
Pressure: 30"   Gusts: NA
Location:  31.0532°N, 88.8084°W
Report Text: KHBG 211953Z AUTO 35007KT 10SM CLR 27/11 A3000 RMK AO2 SLP158 T02670111
Loading
Personal Weather Stations






























Interactive Weather Map
Tropical Storm Tracking
New forecast layout! Learn more

10-Day Weather Forecast

Advertisements
Track Severe Weather on mobile